sensor_id;sensor_type;location;lat;lon;timestamp;P1;durP1;ratioP1;P2;durP2;ratioP2
41101;SDS011;26845;50.190;19.178;2023-04-01T00:02:24;3.10;;;1.70;;
41101;SDS011;26845;50.190;19.178;2023-04-01T00:04:58;3.10;;;1.80;;
41101;SDS011;26845;50.190;19.178;2023-04-01T00:07:32;3.50;;;1.80;;
41101;SDS011;26845;50.190;19.178;2023-04-01T00:10:06;5.50;;;1.90;;
41101;SDS011;26845;50.190;19.178;2023-04-01T00:12:39;2.10;;;1.80;;
41101;SDS011;26845;50.190;19.178;2023-04-01T00:15:13;6.20;;;2.50;;
41101;SDS011;26845;50.190;19.178;2023-04-01T00:17:46;6.90;;;3.50;;
41101;SDS011;26845;50.190;19.178;2023-04-01T00:20:20;7.50;;;3.50;;
41101;SDS011;26845;50.190;19.178;2023-04-01T00:22:54;7.20;;;3.90;;
41101;SDS011;26845;50.190;19.178;2023-04-01T00:25:28;8.70;;;3.60;;
41101;SDS011;26845;50.190;19.178;2023-04-01T00:28:01;7.00;;;3.60;;
41101;SDS011;26845;50.190;19.178;2023-04-01T00:30:35;9.00;;;3.40;;
41101;SDS011;26845;50.190;19.178;2023-04-01T00:33:09;6.60;;;2.80;;
41101;SDS011;26845;50.190;19.178;2023-04-01T00:35:42;6.00;;;2.80;;
41101;SDS011;26845;50.190;19.178;2023-04-01T00:38:16;5.40;;;2.50;;
41101;SDS011;26845;50.190;19.178;2023-04-01T00:40:50;6.80;;;2.50;;
41101;SDS011;26845;50.190;19.178;2023-04-01T00:43:23;6.30;;;2.70;;
41101;SDS011;26845;50.190;19.178;2023-04-01T00:45:57;5.50;;;2.30;;
41101;SDS011;26845;50.190;19.178;2023-04-01T00:48:32;5.10;;;2.50;;
41101;SDS011;26845;50.190;19.178;2023-04-01T00:51:14;5.10;;;2.50;;
41101;SDS011;26845;50.190;19.178;2023-04-01T00:53:48;5.50;;;2.50;;
41101;SDS011;26845;50.190;19.178;2023-04-01T00:56:28;5.20;;;2.40;;
41101;SDS011;26845;50.190;19.178;2023-04-01T00:59:04;5.20;;;2.80;;
41101;SDS011;26845;50.190;19.178;2023-04-01T01:01:35;4.80;;;2.60;;
41101;SDS011;26845;50.190;19.178;2023-04-01T01:04:20;3.40;;;2.30;;
41101;SDS011;26845;50.190;19.178;2023-04-01T01:06:46;5.50;;;3.00;;
41101;SDS011;26845;50.190;19.178;2023-04-01T01:09:26;5.80;;;2.60;;
41101;SDS011;26845;50.190;19.178;2023-04-01T01:12:01;8.70;;;3.10;;
41101;SDS011;26845;50.190;19.178;2023-04-01T01:17:13;10.00;;;3.60;;
41101;SDS011;26845;50.190;19.178;2023-04-01T01:22:30;7.40;;;3.80;;
41101;SDS011;26845;50.190;19.178;2023-04-01T01:25:16;7.60;;;3.50;;
41101;SDS011;26845;50.190;19.178;2023-04-01T01:27:47;7.30;;;3.70;;
41101;SDS011;26845;50.190;19.178;2023-04-01T01:35:54;7.80;;;4.00;;
41101;SDS011;26845;50.190;19.178;2023-04-01T01:38:27;7.80;;;3.70;;
41101;SDS011;26845;50.190;19.178;2023-04-01T01:41:01;8.20;;;4.00;;
41101;SDS011;26845;50.190;19.178;2023-04-01T01:43:39;6.40;;;3.80;;
41101;SDS011;26845;50.190;19.178;2023-04-01T01:46:11;7.60;;;4.10;;
41101;SDS011;26845;50.190;19.178;2023-04-01T01:48:45;8.60;;;3.60;;
41101;SDS011;26845;50.190;19.178;2023-04-01T01:51:19;6.90;;;3.60;;
41101;SDS011;26845;50.190;19.178;2023-04-01T01:53:52;7.30;;;3.80;;
41101;SDS011;26845;50.190;19.178;2023-04-01T01:56:26;7.40;;;3.70;;
41101;SDS011;26845;50.190;19.178;2023-04-01T01:59:01;6.10;;;3.60;;
41101;SDS011;26845;50.190;19.178;2023-04-01T02:01:35;6.20;;;2.90;;
41101;SDS011;26845;50.190;19.178;2023-04-01T02:04:07;8.20;;;3.00;;
41101;SDS011;26845;50.190;19.178;2023-04-01T02:06:43;5.50;;;3.60;;
41101;SDS011;26845;50.190;19.178;2023-04-01T02:09:14;9.30;;;3.70;;
41101;SDS011;26845;50.190;19.178;2023-04-01T02:11:52;8.20;;;3.20;;
41101;SDS011;26845;50.190;19.178;2023-04-01T02:14:29;7.00;;;3.50;;
41101;SDS011;26845;50.190;19.178;2023-04-01T02:17:04;6.10;;;3.10;;
41101;SDS011;26845;50.190;19.178;2023-04-01T02:22:32;8.70;;;3.10;;
41101;SDS011;26845;50.190;19.178;2023-04-01T02:25:05;6.70;;;3.40;;
41101;SDS011;26845;50.190;19.178;2023-04-01T02:27:38;7.60;;;3.40;;
41101;SDS011;26845;50.190;19.178;2023-04-01T02:30:12;5.00;;;2.70;;
41101;SDS011;26845;50.190;19.178;2023-04-01T02:32:45;6.30;;;3.00;;
41101;SDS011;26845;50.190;19.178;2023-04-01T02:35:19;5.20;;;2.70;;
41101;SDS011;26845;50.190;19.178;2023-04-01T02:37:53;9.60;;;3.20;;
41101;SDS011;26845;50.190;19.178;2023-04-01T02:40:26;5.80;;;2.90;;
41101;SDS011;26845;50.190;19.178;2023-04-01T02:43:00;6.40;;;2.70;;
41101;SDS011;26845;50.190;19.178;2023-04-01T02:45:34;5.20;;;2.50;;
41101;SDS011;26845;50.190;19.178;2023-04-01T02:48:08;6.00;;;2.70;;
41101;SDS011;26845;50.190;19.178;2023-04-01T02:50:41;4.90;;;2.70;;
41101;SDS011;26845;50.190;19.178;2023-04-01T02:53:15;4.30;;;2.40;;
41101;SDS011;26845;50.190;19.178;2023-04-01T02:55:49;4.90;;;2.30;;
41101;SDS011;26845;50.190;19.178;2023-04-01T02:58:22;3.80;;;2.40;;
41101;SDS011;26845;50.190;19.178;2023-04-01T03:00:56;4.70;;;2.50;;
41101;SDS011;26845;50.190;19.178;2023-04-01T03:03:30;4.80;;;2.40;;
41101;SDS011;26845;50.190;19.178;2023-04-01T03:06:07;4.70;;;2.10;;
41101;SDS011;26845;50.190;19.178;2023-04-01T03:08:40;4.60;;;2.80;;
41101;SDS011;26845;50.190;19.178;2023-04-01T03:11:14;3.40;;;2.30;;
41101;SDS011;26845;50.190;19.178;2023-04-01T03:13:59;4.80;;;2.40;;
41101;SDS011;26845;50.190;19.178;2023-04-01T03:16:33;5.20;;;2.70;;
41101;SDS011;26845;50.190;19.178;2023-04-01T03:19:07;4.60;;;2.40;;
41101;SDS011;26845;50.190;19.178;2023-04-01T03:21:40;5.50;;;3.00;;
41101;SDS011;26845;50.190;19.178;2023-04-01T03:24:14;5.80;;;2.10;;
41101;SDS011;26845;50.190;19.178;2023-04-01T03:26:48;3.90;;;1.80;;
41101;SDS011;26845;50.190;19.178;2023-04-01T03:29:22;5.80;;;2.80;;
41101;SDS011;26845;50.190;19.178;2023-04-01T03:31:55;4.80;;;2.40;;
41101;SDS011;26845;50.190;19.178;2023-04-01T03:34:29;4.50;;;2.30;;
41101;SDS011;26845;50.190;19.178;2023-04-01T03:37:03;5.40;;;2.20;;
41101;SDS011;26845;50.190;19.178;2023-04-01T03:39:36;4.00;;;2.10;;
41101;SDS011;26845;50.190;19.178;2023-04-01T03:42:10;6.70;;;2.30;;
41101;SDS011;26845;50.190;19.178;2023-04-01T03:44:44;5.30;;;2.30;;
41101;SDS011;26845;50.190;19.178;2023-04-01T03:47:17;5.90;;;2.20;;
41101;SDS011;26845;50.190;19.178;2023-04-01T03:49:51;5.90;;;2.30;;
41101;SDS011;26845;50.190;19.178;2023-04-01T03:52:25;5.20;;;2.60;;
41101;SDS011;26845;50.190;19.178;2023-04-01T03:54:58;5.50;;;2.50;;
41101;SDS011;26845;50.190;19.178;2023-04-01T03:57:32;4.60;;;2.10;;
41101;SDS011;26845;50.190;19.178;2023-04-01T04:00:06;4.30;;;2.30;;
41101;SDS011;26845;50.190;19.178;2023-04-01T04:02:40;4.60;;;2.70;;
41101;SDS011;26845;50.190;19.178;2023-04-01T04:05:14;6.00;;;2.30;;
41101;SDS011;26845;50.190;19.178;2023-04-01T04:07:47;6.70;;;2.60;;
41101;SDS011;26845;50.190;19.178;2023-04-01T04:10:21;5.50;;;3.10;;
41101;SDS011;26845;50.190;19.178;2023-04-01T04:12:55;4.20;;;2.40;;
41101;SDS011;26845;50.190;19.178;2023-04-01T04:15:28;5.30;;;2.30;;
41101;SDS011;26845;50.190;19.178;2023-04-01T04:18:02;4.50;;;2.20;;
41101;SDS011;26845;50.190;19.178;2023-04-01T04:20:36;5.00;;;2.10;;
41101;SDS011;26845;50.190;19.178;2023-04-01T04:23:09;6.90;;;2.80;;
41101;SDS011;26845;50.190;19.178;2023-04-01T04:28:35;5.10;;;2.30;;
41101;SDS011;26845;50.190;19.178;2023-04-01T04:31:09;6.90;;;2.60;;
41101;SDS011;26845;50.190;19.178;2023-04-01T04:33:43;5.70;;;2.50;;
41101;SDS011;26845;50.190;19.178;2023-04-01T04:36:17;8.40;;;2.40;;
41101;SDS011;26845;50.190;19.178;2023-04-01T04:38:50;9.10;;;2.70;;
41101;SDS011;26845;50.190;19.178;2023-04-01T04:41:24;4.40;;;2.40;;
41101;SDS011;26845;50.190;19.178;2023-04-01T04:43:57;6.10;;;2.70;;
41101;SDS011;26845;50.190;19.178;2023-04-01T04:46:31;3.60;;;2.30;;
41101;SDS011;26845;50.190;19.178;2023-04-01T04:49:05;5.70;;;3.50;;
41101;SDS011;26845;50.190;19.178;2023-04-01T04:51:39;5.90;;;2.50;;
41101;SDS011;26845;50.190;19.178;2023-04-01T04:54:12;6.00;;;3.10;;
41101;SDS011;26845;50.190;19.178;2023-04-01T04:56:46;6.40;;;3.70;;
41101;SDS011;26845;50.190;19.178;2023-04-01T04:59:20;7.70;;;3.50;;
41101;SDS011;26845;50.190;19.178;2023-04-01T05:01:53;8.50;;;3.60;;
41101;SDS011;26845;50.190;19.178;2023-04-01T05:04:27;8.80;;;3.50;;
41101;SDS011;26845;50.190;19.178;2023-04-01T05:07:01;7.50;;;4.00;;
41101;SDS011;26845;50.190;19.178;2023-04-01T05:09:34;8.20;;;4.50;;
41101;SDS011;26845;50.190;19.178;2023-04-01T05:12:08;6.40;;;3.60;;
41101;SDS011;26845;50.190;19.178;2023-04-01T05:14:42;8.20;;;4.30;;
41101;SDS011;26845;50.190;19.178;2023-04-01T05:17:16;5.80;;;3.20;;
41101;SDS011;26845;50.190;19.178;2023-04-01T05:19:49;7.20;;;3.10;;
41101;SDS011;26845;50.190;19.178;2023-04-01T05:22:23;4.40;;;3.00;;
41101;SDS011;26845;50.190;19.178;2023-04-01T05:24:57;9.10;;;3.80;;
41101;SDS011;26845;50.190;19.178;2023-04-01T05:27:30;7.50;;;3.80;;
41101;SDS011;26845;50.190;19.178;2023-04-01T05:30:04;7.20;;;3.30;;
41101;SDS011;26845;50.190;19.178;2023-04-01T05:32:38;8.90;;;3.40;;
41101;SDS011;26845;50.190;19.178;2023-04-01T05:35:12;9.40;;;4.00;;
41101;SDS011;26845;50.190;19.178;2023-04-01T05:37:45;7.40;;;3.50;;
41101;SDS011;26845;50.190;19.178;2023-04-01T05:40:19;6.20;;;3.90;;
41101;SDS011;26845;50.190;19.178;2023-04-01T05:42:53;9.50;;;3.70;;
41101;SDS011;26845;50.190;19.178;2023-04-01T05:45:26;6.50;;;3.00;;
41101;SDS011;26845;50.190;19.178;2023-04-01T05:48:00;9.20;;;3.30;;
41101;SDS011;26845;50.190;19.178;2023-04-01T05:50:34;7.20;;;3.30;;
41101;SDS011;26845;50.190;19.178;2023-04-01T05:53:07;9.30;;;3.80;;
41101;SDS011;26845;50.190;19.178;2023-04-01T05:55:41;7.90;;;3.80;;
41101;SDS011;26845;50.190;19.178;2023-04-01T05:58:15;9.40;;;3.90;;
41101;SDS011;26845;50.190;19.178;2023-04-01T06:00:49;8.50;;;3.60;;
41101;SDS011;26845;50.190;19.178;2023-04-01T06:03:22;5.90;;;2.80;;
41101;SDS011;26845;50.190;19.178;2023-04-01T06:05:56;8.10;;;3.50;;
41101;SDS011;26845;50.190;19.178;2023-04-01T06:08:30;7.20;;;3.50;;
41101;SDS011;26845;50.190;19.178;2023-04-01T06:17:07;7.50;;;3.70;;
41101;SDS011;26845;50.190;19.178;2023-04-01T06:27:43;8.00;;;3.40;;
41101;SDS011;26845;50.190;19.178;2023-04-01T06:30:16;9.90;;;3.30;;
41101;SDS011;26845;50.190;19.178;2023-04-01T06:35:31;8.80;;;3.50;;
41101;SDS011;26845;50.190;19.178;2023-04-01T06:46:15;8.70;;;3.50;;
41101;SDS011;26845;50.190;19.178;2023-04-01T06:49:00;6.60;;;3.10;;
41101;SDS011;26845;50.190;19.178;2023-04-01T06:51:32;10.10;;;3.60;;
41101;SDS011;26845;50.190;19.178;2023-04-01T06:56:45;7.30;;;3.60;;
41101;SDS011;26845;50.190;19.178;2023-04-01T06:59:19;9.50;;;3.60;;
41101;SDS011;26845;50.190;19.178;2023-04-01T07:01:57;7.70;;;3.40;;
41101;SDS011;26845;50.190;19.178;2023-04-01T07:04:33;10.20;;;3.50;;
41101;SDS011;26845;50.190;19.178;2023-04-01T07:07:08;14.20;;;4.20;;
41101;SDS011;26845;50.190;19.178;2023-04-01T07:09:40;6.90;;;3.50;;
41101;SDS011;26845;50.190;19.178;2023-04-01T07:12:19;7.30;;;3.20;;
41101;SDS011;26845;50.190;19.178;2023-04-01T07:14:46;8.70;;;3.20;;
41101;SDS011;26845;50.190;19.178;2023-04-01T07:17:21;7.70;;;3.60;;
41101;SDS011;26845;50.190;19.178;2023-04-01T07:20:02;8.10;;;3.00;;
41101;SDS011;26845;50.190;19.178;2023-04-01T07:22:35;10.60;;;2.80;;
41101;SDS011;26845;50.190;19.178;2023-04-01T07:27:41;6.40;;;3.60;;
41101;SDS011;26845;50.190;19.178;2023-04-01T07:30:16;5.80;;;2.50;;
41101;SDS011;26845;50.190;19.178;2023-04-01T07:32:55;5.30;;;2.90;;
41101;SDS011;26845;50.190;19.178;2023-04-01T07:35:27;5.10;;;2.50;;
41101;SDS011;26845;50.190;19.178;2023-04-01T07:38:09;5.20;;;3.00;;
41101;SDS011;26845;50.190;19.178;2023-04-01T07:40:40;5.70;;;2.60;;
41101;SDS011;26845;50.190;19.178;2023-04-01T07:43:19;6.20;;;2.80;;
41101;SDS011;26845;50.190;19.178;2023-04-01T07:46:03;5.90;;;2.00;;
41101;SDS011;26845;50.190;19.178;2023-04-01T07:48:50;6.70;;;2.20;;
41101;SDS011;26845;50.190;19.178;2023-04-01T07:51:27;5.30;;;2.20;;
41101;SDS011;26845;50.190;19.178;2023-04-01T07:54:02;6.70;;;2.80;;
41101;SDS011;26845;50.190;19.178;2023-04-01T07:56:40;5.20;;;2.40;;
41101;SDS011;26845;50.190;19.178;2023-04-01T07:59:12;5.70;;;3.00;;
41101;SDS011;26845;50.190;19.178;2023-04-01T08:01:48;9.10;;;3.40;;
41101;SDS011;26845;50.190;19.178;2023-04-01T08:04:22;5.70;;;3.40;;
41101;SDS011;26845;50.190;19.178;2023-04-01T08:15:36;11.10;;;3.30;;
41101;SDS011;26845;50.190;19.178;2023-04-01T08:23:45;5.50;;;3.10;;
41101;SDS011;26845;50.190;19.178;2023-04-01T08:26:32;6.00;;;3.40;;
41101;SDS011;26845;50.190;19.178;2023-04-01T08:29:17;5.70;;;3.20;;
41101;SDS011;26845;50.190;19.178;2023-04-01T08:31:57;8.70;;;4.20;;
41101;SDS011;26845;50.190;19.178;2023-04-01T08:34:34;10.80;;;4.50;;
41101;SDS011;26845;50.190;19.178;2023-04-01T08:39:49;11.60;;;4.60;;
41101;SDS011;26845;50.190;19.178;2023-04-01T08:50:46;9.00;;;3.90;;
41101;SDS011;26845;50.190;19.178;2023-04-01T08:53:29;5.10;;;2.70;;
41101;SDS011;26845;50.190;19.178;2023-04-01T08:56:23;6.70;;;3.50;;
41101;SDS011;26845;50.190;19.178;2023-04-01T09:01:32;7.60;;;3.60;;
41101;SDS011;26845;50.190;19.178;2023-04-01T09:06:52;4.30;;;2.80;;
41101;SDS011;26845;50.190;19.178;2023-04-01T09:12:06;3.60;;;2.30;;
41101;SDS011;26845;50.190;19.178;2023-04-01T09:20:14;8.40;;;4.00;;
41101;SDS011;26845;50.190;19.178;2023-04-01T09:28:19;7.90;;;4.20;;
41101;SDS011;26845;50.190;19.178;2023-04-01T09:33:46;4.20;;;3.20;;
41101;SDS011;26845;50.190;19.178;2023-04-01T09:36:18;5.60;;;3.20;;
41101;SDS011;26845;50.190;19.178;2023-04-01T09:44:35;5.40;;;3.70;;
41101;SDS011;26845;50.190;19.178;2023-04-01T09:47:16;4.10;;;3.40;;
41101;SDS011;26845;50.190;19.178;2023-04-01T09:52:31;6.80;;;3.80;;
41101;SDS011;26845;50.190;19.178;2023-04-01T09:55:06;5.00;;;3.20;;
41101;SDS011;26845;50.190;19.178;2023-04-01T09:57:47;3.40;;;2.20;;
41101;SDS011;26845;50.190;19.178;2023-04-01T10:00:28;5.70;;;3.60;;
41101;SDS011;26845;50.190;19.178;2023-04-01T10:03:02;5.20;;;3.20;;
41101;SDS011;26845;50.190;19.178;2023-04-01T10:19:14;3.70;;;1.90;;
41101;SDS011;26845;50.190;19.178;2023-04-01T10:21:52;3.20;;;1.80;;
41101;SDS011;26845;50.190;19.178;2023-04-01T10:24:31;2.40;;;1.50;;
41101;SDS011;26845;50.190;19.178;2023-04-01T10:27:04;3.50;;;2.00;;
41101;SDS011;26845;50.190;19.178;2023-04-01T10:51:47;7.90;;;4.80;;
41101;SDS011;26845;50.190;19.178;2023-04-01T10:56:59;4.80;;;3.30;;
41101;SDS011;26845;50.190;19.178;2023-04-01T10:59:53;6.80;;;4.10;;
41101;SDS011;26845;50.190;19.178;2023-04-01T11:02:31;2.00;;;1.30;;
41101;SDS011;26845;50.190;19.178;2023-04-01T11:07:50;3.70;;;2.20;;
41101;SDS011;26845;50.190;19.178;2023-04-01T11:22:24;2.40;;;1.80;;
41101;SDS011;26845;50.190;19.178;2023-04-01T11:25:15;3.30;;;2.40;;
41101;SDS011;26845;50.190;19.178;2023-04-01T11:35:32;1.70;;;1.30;;
41101;SDS011;26845;50.190;19.178;2023-04-01T11:38:18;2.40;;;1.50;;
41101;SDS011;26845;50.190;19.178;2023-04-01T11:40:54;1.30;;;1.00;;
41101;SDS011;26845;50.190;19.178;2023-04-01T11:48:56;3.10;;;1.90;;
41101;SDS011;26845;50.190;19.178;2023-04-01T11:51:34;5.10;;;3.20;;
41101;SDS011;26845;50.190;19.178;2023-04-01T11:56:56;3.00;;;2.00;;
41101;SDS011;26845;50.190;19.178;2023-04-01T12:05:13;3.80;;;1.70;;
41101;SDS011;26845;50.190;19.178;2023-04-01T12:07:48;2.40;;;1.70;;
41101;SDS011;26845;50.190;19.178;2023-04-01T12:10:17;3.80;;;1.90;;
41101;SDS011;26845;50.190;19.178;2023-04-01T12:18:23;2.10;;;1.00;;
41101;SDS011;26845;50.190;19.178;2023-04-01T12:20:57;2.20;;;1.30;;
41101;SDS011;26845;50.190;19.178;2023-04-01T12:31:37;3.90;;;1.60;;
41101;SDS011;26845;50.190;19.178;2023-04-01T12:34:18;2.30;;;1.50;;
41101;SDS011;26845;50.190;19.178;2023-04-01T12:36:47;1.80;;;1.50;;
41101;SDS011;26845;50.190;19.178;2023-04-01T12:39:37;2.50;;;1.30;;
41101;SDS011;26845;50.190;19.178;2023-04-01T12:55:56;4.30;;;1.50;;
41101;SDS011;26845;50.190;19.178;2023-04-01T12:58:55;3.40;;;1.70;;
41101;SDS011;26845;50.190;19.178;2023-04-01T13:04:11;3.50;;;2.20;;
41101;SDS011;26845;50.190;19.178;2023-04-01T13:06:48;7.50;;;4.00;;
41101;SDS011;26845;50.190;19.178;2023-04-01T13:20:49;4.30;;;2.40;;
41101;SDS011;26845;50.190;19.178;2023-04-01T13:23:52;5.00;;;2.50;;
41101;SDS011;26845;50.190;19.178;2023-04-01T13:29:16;5.90;;;2.50;;
41101;SDS011;26845;50.190;19.178;2023-04-01T13:43:59;5.90;;;3.30;;
41101;SDS011;26845;50.190;19.178;2023-04-01T14:04:02;6.40;;;3.50;;
41101;SDS011;26845;50.190;19.178;2023-04-01T14:06:54;6.80;;;3.50;;
41101;SDS011;26845;50.190;19.178;2023-04-01T14:12:35;10.60;;;7.00;;
41101;SDS011;26845;50.190;19.178;2023-04-01T14:18:10;5.30;;;3.60;;
41101;SDS011;26845;50.190;19.178;2023-04-01T14:23:20;7.60;;;4.50;;
41101;SDS011;26845;50.190;19.178;2023-04-01T14:37:48;7.90;;;4.30;;
41101;SDS011;26845;50.190;19.178;2023-04-01T14:45:45;5.30;;;3.20;;
41101;SDS011;26845;50.190;19.178;2023-04-01T14:51:16;14.70;;;6.60;;
41101;SDS011;26845;50.190;19.178;2023-04-01T14:56:41;8.90;;;4.40;;
41101;SDS011;26845;50.190;19.178;2023-04-01T14:59:15;7.20;;;4.20;;
41101;SDS011;26845;50.190;19.178;2023-04-01T15:01:54;13.70;;;8.80;;
41101;SDS011;26845;50.190;19.178;2023-04-01T15:07:02;8.20;;;4.60;;
41101;SDS011;26845;50.190;19.178;2023-04-01T15:12:34;4.80;;;3.00;;
41101;SDS011;26845;50.190;19.178;2023-04-01T15:18:13;8.60;;;4.40;;
41101;SDS011;26845;50.190;19.178;2023-04-01T15:28:45;8.40;;;3.80;;
41101;SDS011;26845;50.190;19.178;2023-04-01T15:34:07;7.80;;;4.30;;
41101;SDS011;26845;50.190;19.178;2023-04-01T15:55:26;26.70;;;13.30;;
41101;SDS011;26845;50.190;19.178;2023-04-01T15:58:18;23.70;;;13.00;;
41101;SDS011;26845;50.190;19.178;2023-04-01T16:03:45;16.90;;;8.60;;
41101;SDS011;26845;50.190;19.178;2023-04-01T16:19:53;10.30;;;6.90;;
41101;SDS011;26845;50.190;19.178;2023-04-01T16:22:35;21.00;;;11.50;;
41101;SDS011;26845;50.190;19.178;2023-04-01T16:40:02;10.10;;;6.10;;
41101;SDS011;26845;50.190;19.178;2023-04-01T16:42:43;5.10;;;3.50;;
41101;SDS011;26845;50.190;19.178;2023-04-01T16:45:37;5.10;;;3.00;;
41101;SDS011;26845;50.190;19.178;2023-04-01T16:58:48;8.60;;;5.30;;
41101;SDS011;26845;50.190;19.178;2023-04-01T17:01:18;10.60;;;6.50;;
41101;SDS011;26845;50.190;19.178;2023-04-01T17:03:51;11.10;;;6.90;;
41101;SDS011;26845;50.190;19.178;2023-04-01T17:11:57;12.70;;;6.60;;
41101;SDS011;26845;50.190;19.178;2023-04-01T17:17:15;10.10;;;6.10;;
41101;SDS011;26845;50.190;19.178;2023-04-01T17:19:54;15.00;;;8.20;;
41101;SDS011;26845;50.190;19.178;2023-04-01T17:41:19;33.20;;;16.10;;
41101;SDS011;26845;50.190;19.178;2023-04-01T17:46:50;13.50;;;6.80;;
41101;SDS011;26845;50.190;19.178;2023-04-01T17:52:00;19.30;;;10.60;;
41101;SDS011;26845;50.190;19.178;2023-04-01T17:54:46;17.70;;;10.30;;
41101;SDS011;26845;50.190;19.178;2023-04-01T17:57:32;17.90;;;9.80;;
41101;SDS011;26845;50.190;19.178;2023-04-01T18:02:48;22.80;;;12.50;;
41101;SDS011;26845;50.190;19.178;2023-04-01T18:08:17;22.90;;;13.00;;
41101;SDS011;26845;50.190;19.178;2023-04-01T18:13:32;21.00;;;10.40;;
41101;SDS011;26845;50.190;19.178;2023-04-01T18:18:46;14.30;;;8.70;;
41101;SDS011;26845;50.190;19.178;2023-04-01T18:23:56;19.50;;;10.70;;
41101;SDS011;26845;50.190;19.178;2023-04-01T18:26:31;27.40;;;15.00;;
41101;SDS011;26845;50.190;19.178;2023-04-01T18:37:34;34.60;;;19.20;;
41101;SDS011;26845;50.190;19.178;2023-04-01T18:40:18;27.20;;;15.90;;
41101;SDS011;26845;50.190;19.178;2023-04-01T18:42:55;26.20;;;15.40;;
41101;SDS011;26845;50.190;19.178;2023-04-01T18:45:37;25.10;;;13.70;;
41101;SDS011;26845;50.190;19.178;2023-04-01T18:50:56;27.00;;;14.90;;
41101;SDS011;26845;50.190;19.178;2023-04-01T18:53:39;28.40;;;16.00;;
41101;SDS011;26845;50.190;19.178;2023-04-01T18:56:22;33.30;;;18.10;;
41101;SDS011;26845;50.190;19.178;2023-04-01T18:58:50;34.50;;;18.50;;
41101;SDS011;26845;50.190;19.178;2023-04-01T19:01:22;34.20;;;19.10;;
41101;SDS011;26845;50.190;19.178;2023-04-01T19:06:32;27.50;;;16.00;;
41101;SDS011;26845;50.190;19.178;2023-04-01T19:09:15;26.80;;;15.10;;
41101;SDS011;26845;50.190;19.178;2023-04-01T19:17:10;28.60;;;15.00;;
41101;SDS011;26845;50.190;19.178;2023-04-01T19:19:54;28.10;;;15.20;;
41101;SDS011;26845;50.190;19.178;2023-04-01T19:25:22;28.20;;;16.90;;
41101;SDS011;26845;50.190;19.178;2023-04-01T19:27:50;23.90;;;15.40;;
41101;SDS011;26845;50.190;19.178;2023-04-01T19:33:13;20.80;;;13.40;;
41101;SDS011;26845;50.190;19.178;2023-04-01T19:38:52;21.80;;;14.20;;
41101;SDS011;26845;50.190;19.178;2023-04-01T19:44:12;26.60;;;15.00;;
41101;SDS011;26845;50.190;19.178;2023-04-01T19:46:46;25.00;;;15.10;;
41101;SDS011;26845;50.190;19.178;2023-04-01T19:49:26;28.70;;;18.10;;
41101;SDS011;26845;50.190;19.178;2023-04-01T19:51:56;26.40;;;16.30;;
41101;SDS011;26845;50.190;19.178;2023-04-01T19:57:15;30.70;;;19.20;;
41101;SDS011;26845;50.190;19.178;2023-04-01T20:02:38;33.20;;;21.50;;
41101;SDS011;26845;50.190;19.178;2023-04-01T20:05:21;36.10;;;23.00;;
41101;SDS011;26845;50.190;19.178;2023-04-01T20:07:57;38.60;;;22.20;;
41101;SDS011;26845;50.190;19.178;2023-04-01T20:10:37;38.70;;;22.50;;
41101;SDS011;26845;50.190;19.178;2023-04-01T20:16:06;37.10;;;21.80;;
41101;SDS011;26845;50.190;19.178;2023-04-01T20:18:51;35.60;;;21.00;;
41101;SDS011;26845;50.190;19.178;2023-04-01T20:21:34;28.80;;;19.00;;
41101;SDS011;26845;50.190;19.178;2023-04-01T20:24:20;36.60;;;23.20;;
41101;SDS011;26845;50.190;19.178;2023-04-01T20:26:50;37.50;;;22.40;;
41101;SDS011;26845;50.190;19.178;2023-04-01T20:29:34;51.20;;;29.80;;
41101;SDS011;26845;50.190;19.178;2023-04-01T20:37:57;46.90;;;26.90;;
41101;SDS011;26845;50.190;19.178;2023-04-01T20:40:43;38.40;;;24.00;;
41101;SDS011;26845;50.190;19.178;2023-04-01T20:45:58;34.50;;;21.20;;
41101;SDS011;26845;50.190;19.178;2023-04-01T20:51:30;35.00;;;20.80;;
41101;SDS011;26845;50.190;19.178;2023-04-01T20:56:44;24.50;;;14.90;;
41101;SDS011;26845;50.190;19.178;2023-04-01T21:01:53;24.40;;;14.00;;
41101;SDS011;26845;50.190;19.178;2023-04-01T21:04:30;28.40;;;16.50;;
41101;SDS011;26845;50.190;19.178;2023-04-01T21:09:56;25.00;;;14.50;;
41101;SDS011;26845;50.190;19.178;2023-04-01T21:12:34;24.80;;;15.80;;
41101;SDS011;26845;50.190;19.178;2023-04-01T21:18:18;27.60;;;16.20;;
41101;SDS011;26845;50.190;19.178;2023-04-01T21:20:53;24.20;;;14.80;;
41101;SDS011;26845;50.190;19.178;2023-04-01T21:23:31;23.80;;;13.20;;
41101;SDS011;26845;50.190;19.178;2023-04-01T21:37:14;23.50;;;14.80;;
41101;SDS011;26845;50.190;19.178;2023-04-01T21:42:40;24.30;;;15.50;;
41101;SDS011;26845;50.190;19.178;2023-04-01T21:48:01;20.50;;;13.80;;
41101;SDS011;26845;50.190;19.178;2023-04-01T21:56:28;24.10;;;14.60;;
41101;SDS011;26845;50.190;19.178;2023-04-01T22:01:57;22.60;;;13.90;;
41101;SDS011;26845;50.190;19.178;2023-04-01T22:04:31;21.20;;;13.50;;
41101;SDS011;26845;50.190;19.178;2023-04-01T22:07:15;19.50;;;13.10;;
41101;SDS011;26845;50.190;19.178;2023-04-01T22:09:52;22.00;;;13.60;;
41101;SDS011;26845;50.190;19.178;2023-04-01T22:25:40;24.90;;;15.90;;
41101;SDS011;26845;50.190;19.178;2023-04-01T22:28:24;24.60;;;15.90;;
41101;SDS011;26845;50.190;19.178;2023-04-01T22:31:00;24.70;;;15.00;;
41101;SDS011;26845;50.190;19.178;2023-04-01T22:36:13;28.00;;;16.30;;
41101;SDS011;26845;50.190;19.178;2023-04-01T22:38:48;25.80;;;17.10;;
41101;SDS011;26845;50.190;19.178;2023-04-01T22:43:55;31.60;;;17.30;;
41101;SDS011;26845;50.190;19.178;2023-04-01T22:49:25;30.80;;;17.60;;
41101;SDS011;26845;50.190;19.178;2023-04-01T22:54:46;32.50;;;19.00;;
41101;SDS011;26845;50.190;19.178;2023-04-01T22:57:36;27.80;;;17.60;;
41101;SDS011;26845;50.190;19.178;2023-04-01T23:00:07;29.00;;;19.10;;
41101;SDS011;26845;50.190;19.178;2023-04-01T23:02:39;32.60;;;19.80;;
41101;SDS011;26845;50.190;19.178;2023-04-01T23:05:14;33.20;;;19.90;;
41101;SDS011;26845;50.190;19.178;2023-04-01T23:07:56;32.70;;;19.00;;
41101;SDS011;26845;50.190;19.178;2023-04-01T23:13:13;29.40;;;19.70;;
41101;SDS011;26845;50.190;19.178;2023-04-01T23:15:46;31.90;;;19.80;;
41101;SDS011;26845;50.190;19.178;2023-04-01T23:23:39;26.60;;;16.50;;
41101;SDS011;26845;50.190;19.178;2023-04-01T23:26:10;24.10;;;15.00;;
41101;SDS011;26845;50.190;19.178;2023-04-01T23:28:49;29.90;;;16.60;;
41101;SDS011;26845;50.190;19.178;2023-04-01T23:33:54;23.30;;;16.10;;
41101;SDS011;26845;50.190;19.178;2023-04-01T23:36:28;23.40;;;16.30;;
41101;SDS011;26845;50.190;19.178;2023-04-01T23:39:03;27.00;;;17.10;;
41101;SDS011;26845;50.190;19.178;2023-04-01T23:41:34;23.40;;;16.00;;
41101;SDS011;26845;50.190;19.178;2023-04-01T23:44:11;23.50;;;15.60;;
41101;SDS011;26845;50.190;19.178;2023-04-01T23:46:42;26.40;;;16.50;;
41101;SDS011;26845;50.190;19.178;2023-04-01T23:49:21;27.10;;;15.20;;
41101;SDS011;26845;50.190;19.178;2023-04-01T23:51:55;23.20;;;14.90;;
41101;SDS011;26845;50.190;19.178;2023-04-01T23:57:04;22.20;;;14.50;;
41101;SDS011;26845;50.190;19.178;2023-04-01T23:59:36;23.50;;;14.60;;
